Flight Track Log - Related Links

Times and Time Zones

All times are in EDT time to prevent confusion due to time zone crossing. See the UAL109 flight status page for this flight to view local times or setup timezone preferences in your user account.

Time Position Orientation Groundspeed Altitude Reporting Facility
EDT Latitude Longitude Course Direction KTS MPH feet Rate Location/Type
Wed 06:54:06 AM 55.9560 -3.3630 North 1 1  Level FlightAware ADS-B
Wed 06:55:12 AM 55.9570 -3.3630 360° North 2 2 99 Level FlightAware ADS-B
Wed 06:57:00 AM 55.9724 -3.7183 281° West  Level FlightAware Approximate
Wed 06:57:06 AM 55.9570 -3.3620 281° West 1 1  Level FlightAware ADS-B
Wed 06:57:57 AM 55.9580 -3.3620 360° North 128 Level FlightAware ADS-B
Wed 07:00:00 AM 55.9778 -3.7667 281° West  Level FlightAware Approximate
Wed 07:01:00 AM 56.0003 -3.9599 282° West  Level FlightAware Approximate
Wed 07:02:00 AM 56.0169 -4.1542 277° West  Level FlightAware Approximate
Wed 07:02:53 AM 55.9620 -3.3510 277° West 20 23  Level FlightAware ADS-B
Wed 07:03:00 AM 56.0301 -4.3503 277° West  Level FlightAware Approximate
Wed 07:04:39 AM 55.9640 -3.3500 16° North 8 9  Level FlightAware ADS-B
Wed 07:05:19 AM 55.9630 -3.3510 209° Southwest 503 Level FlightAware ADS-B
Wed 07:06:14 AM 55.9630 -3.3520 270° West 28 32 678 Level FlightAware ADS-B
Wed 07:06:44 AM 55.9560 -3.3720 238° Southwest 120 138 1,300 Level FlightAware ADS-B
Wed 07:07:14 AM 55.9440 -3.4050 237° Southwest 159 183 1,300 2,618 Climbing FlightAware ADS-B
Wed 07:07:39 AM 55.9330 -3.4350 237° Southwest 163 188 2,400 2,400 Climbing FlightAware ADS-B
Wed 07:08:04 AM 55.9230 -3.4640 238° Southwest 168 193 3,300 1,700 Climbing FlightAware ADS-B
Wed 07:08:39 AM 55.9090 -3.5140 243° Southwest 209 241 4,100 1,333 Climbing FlightAware ADS-B
Wed 07:09:07 AM 55.9060 -3.5590 263° West 239 275 4,700 1,440 Climbing FlightAware ADS-B
Wed 07:09:29 AM 55.9010 -3.6130 261° West 272 313 5,300 1,385 Climbing FlightAware ADS-B
Wed 07:09:59 AM 55.8930 -3.6830 259° West 311 358 5,900 1,200 Climbing FlightAware ADS-B
Wed 07:10:24 AM 55.8860 -3.7490 259° West 341 392 6,400 1,733 Climbing FlightAware ADS-B
Wed 07:10:44 AM 55.8810 -3.8020 260° West 347 399 7,200 2,500 Climbing FlightAware ADS-B
Wed 07:12:36 AM 55.8750 -4.1030 268° West 362 417 11,900 2,620 Climbing FlightAware ADS-B
Wed 07:13:22 AM 55.8810 -4.2620 274° West 374 430 14,100 2,512 Climbing FlightAware ADS-B
Wed 07:14:02 AM 55.8870 -4.3830 275° West 386 444 15,500 1,973 Climbing FlightAware ADS-B
Wed 07:14:35 AM 55.8910 -4.4850 274° West 394 453 16,500 2,026 Climbing FlightAware ADS-B
Wed 07:15:19 AM 55.8970 -4.6420 274° West 403 464 18,100 2,143 Climbing FlightAware ADS-B
Wed 07:15:59 AM 55.9020 -4.7740 274° West 409 471 19,500 1,906 Climbing FlightAware ADS-B
Wed 07:16:44 AM 55.9080 -4.9280 274° West 418 481 20,800 1,835 Climbing FlightAware ADS-B
Wed 07:17:24 AM 55.9130 -5.0650 274° West 422 486 22,100 1,832 Climbing FlightAware ADS-B
Wed 07:18:19 AM 55.9200 -5.2590 274° West 429 494 23,700 1,642 Climbing FlightAware ADS-B
Wed 07:18:59 AM 55.9260 -5.4010 274° West 433 498 24,700 1,465 Climbing FlightAware ADS-B
Wed 07:19:45 AM 55.9460 -5.5580 283° West 439 505 25,800 1,271 Climbing FlightAware ADS-B
Wed 07:20:24 AM 55.9660 -5.6960 285° West 447 514 26,500 1,063 Climbing FlightAware ADS-B
Wed 07:21:04 AM 55.9880 -5.8420 285° West 455 524 27,200 1,271 Climbing FlightAware ADS-B
Wed 07:21:49 AM 56.0130 -6.0080 285° West 456 525 28,300 1,667 Climbing FlightAware ADS-B
Wed 07:22:34 AM 56.0360 -6.1670 285° West 446 513 29,700 1,704 Climbing FlightAware ADS-B
Wed 07:23:10 AM 56.0550 -6.2940 285° West 444 511 30,600 1,465 Climbing FlightAware ADS-B
Wed 07:24:00 AM 56.0800 -6.4710 284° West 441 507 31,800 1,267 Climbing FlightAware ADS-B
Wed 07:24:40 AM 56.1010 -6.6150 285° West 442 509 32,500 1,059 Climbing FlightAware ADS-B
Wed 07:25:25 AM 56.1230 -6.7730 284° West 443 510 33,300 1,071 Climbing FlightAware ADS-B
Wed 07:26:04 AM 56.1430 -6.9150 284° West 445 512 34,000 560 Climbing FlightAware ADS-B
Wed 07:26:40 AM 56.1600 -7.0390 284° West 448 516 34,000  Level FlightAware ADS-B
Wed 07:27:19 AM 56.1800 -7.1830 284° West 448 516 34,000  Level FlightAware ADS-B
Wed 07:28:05 AM 56.2020 -7.3470 284° West 446 513 34,000  Level FlightAware ADS-B
Wed 07:28:41 AM 56.2200 -7.4790 284° West 446 513 34,000  Level FlightAware ADS-B
Wed 07:29:17 AM 56.2370 -7.6050 284° West 446 513 34,000  Level FlightAware ADS-B
Wed 07:30:01 AM 56.2590 -7.7680 284° West 446 513 34,000  Level FlightAware ADS-B
Wed 07:30:42 AM 56.2790 -7.9180 284° West 448 516 34,000  Level FlightAware ADS-B
Wed 07:31:22 AM 56.2970 -8.0620 283° West 447 514 34,000  Level FlightAware ADS-B
Wed 07:32:07 AM 56.3180 -8.2210 283° West 448 516 34,000  Level FlightAware ADS-B
Wed 07:32:48 AM 56.3370 -8.3680 283° West 447 514 34,000  Level FlightAware ADS-B
Wed 07:33:39 AM 56.3610 -8.5570 283° West 447 514 34,000 462 Level FlightAware ADS-B
Wed 07:34:19 AM 56.3790 -8.6970 283° West 445 512 34,700 1,047 Climbing FlightAware ADS-B
Wed 07:35:05 AM 56.3990 -8.8590 283° West 443 510 35,500 960 Climbing FlightAware ADS-B
Wed 07:35:34 AM 56.4130 -8.9710 283° West 445 512 35,900 400 Climbing FlightAware ADS-B
Wed 07:36:20 AM 56.4330 -9.1380 282° West 447 514 36,000 70 Climbing FlightAware ADS-B
Wed 07:37:00 AM 56.4510 -9.2830 283° West 447 514 36,000  Level FlightAware ADS-B
Wed 07:37:41 AM 56.4690 -9.4310 282° West 449 517 36,000  Level FlightAware ADS-B
Wed 07:38:25 AM 56.4880 -9.5930 282° West 449 517 36,000  Level FlightAware ADS-B
Wed 07:39:11 AM 56.5080 -9.7630 282° West 448 516 36,000  Level FlightAware ADS-B
Wed 07:39:51 AM 56.5250 -9.9100 282° West 448 516 36,000  Level FlightAware ADS-B
Wed 07:40:31 AM 56.5420 -10.0560 282° West 448 516 36,000  Level FlightAware ADS-B
Wed 07:41:11 AM 56.5590 -10.2060 282° West 447 514 36,000  Level FlightAware ADS-B
Wed 07:41:56 AM 56.5760 -10.3630 281° West 447 514 36,000  Level FlightAware ADS-B
Wed 07:42:36 AM 56.5920 -10.5020 282° West 446 513 36,000  Level FlightAware ADS-B
Wed 07:43:20 AM 56.6100 -10.6730 281° West 447 514 36,000  Level FlightAware ADS-B
Wed 07:44:04 AM 56.6280 -10.8350 281° West 447 514 36,000  Level FlightAware ADS-B
Wed 07:45:13 AM 56.6530 -11.0800 281° West 447 514 36,000  Level FlightAware ADS-B
Wed 07:45:50 AM 56.6690 -11.2250 281° West 445 512 36,000  Level FlightAware ADS-B
Wed 07:46:45 AM 56.6870 -11.4060 280° West 445 512 36,000  Level FlightAware ADS-B
Wed 07:47:25 AM 56.7040 -11.5660 281° West 444 511 36,000  Level FlightAware ADS-B
Wed 07:48:05 AM 56.7160 -11.6910 280° West 444 511 36,000  Level FlightAware ADS-B
Wed 07:48:53 AM 56.7300 -11.8410 280° West 444 511 36,000  Level FlightAware ADS-B
Wed 07:49:41 AM 56.7450 -11.9920 280° West 444 511 36,000  Level FlightAware ADS-B
Wed 07:50:18 AM 56.7560 -12.1080 280° West 444 511 36,000  Level FlightAware ADS-B
Wed 07:51:30 AM 56.7780 -12.3340 280° West 444 511 36,000  Level FlightAware ADS-B
Wed 07:52:06 AM 56.7890 -12.4470 280° West 444 511 36,000  Level FlightAware ADS-B
Wed 07:52:54 AM 56.8030 -12.5980 280° West 444 511 36,000  Level FlightAware ADS-B
Wed 07:53:30 AM 56.8140 -12.7110 280° West 444 511 36,000  Level FlightAware ADS-B
Wed 07:54:18 AM 56.8290 -12.8620 280° West 444 511 36,000  Level FlightAware ADS-B
Wed 07:54:54 AM 56.8400 -12.9750 280° West 444 511 36,000  Level FlightAware ADS-B
Wed 07:55:30 AM 56.8510 -13.0880 280° West 444 511 36,000  Level FlightAware ADS-B
Wed 07:56:31 AM 56.8690 -13.2800 280° West 444 511 36,000  Level FlightAware ADS-B
Wed 07:57:20 AM 56.8840 -13.4340 280° West 444 511 36,000  Level FlightAware ADS-B
Wed 07:59:00 AM 56.8970 -13.7920 274° West  Level Estimated
Wed 08:00:00 AM 56.9043 -14.0069 274° West  Level Estimated
Wed 08:01:00 AM 56.9113 -14.2219 273° West  Level Estimated
Wed 08:02:00 AM 56.9179 -14.4370 273° West  Level Estimated
Wed 08:03:00 AM 56.9241 -14.6522 273° West  Level Estimated
Wed 08:04:00 AM 56.9299 -14.8674 273° West  Level Estimated
Wed 08:05:00 AM 56.9354 -15.0827 273° West  Level Estimated
Wed 08:06:00 AM 56.9405 -15.2980 273° West  Level Estimated
Wed 08:07:00 AM 56.9452 -15.5134 272° West  Level Estimated
Wed 08:08:00 AM 56.9516 -15.7317 273° West  Level FlightAware Approximate
Wed 08:09:00 AM 56.9576 -15.9502 273° West  Level FlightAware Approximate
Wed 08:10:00 AM 56.9632 -16.1687 273° West  Level FlightAware Approximate
Wed 08:11:00 AM 56.9685 -16.3872 273° West  Level FlightAware Approximate
Wed 08:12:00 AM 56.9734 -16.6059 272° West  Level FlightAware Approximate
Wed 08:13:00 AM 56.9779 -16.8245 272° West  Level FlightAware Approximate
Wed 08:14:00 AM 56.9820 -17.0433 272° West  Level FlightAware Approximate
Wed 08:15:00 AM 56.9857 -17.2620 272° West  Level FlightAware Approximate
Wed 08:16:00 AM 56.9890 -17.4809 272° West  Level FlightAware Approximate
Wed 08:17:00 AM 56.9920 -17.6997 272° West  Level FlightAware Approximate
Wed 08:18:00 AM 56.9946 -17.9186 271° West  Level FlightAware Approximate
Wed 08:19:00 AM 56.9968 -18.1375 271° West  Level FlightAware Approximate
Wed 08:20:00 AM 56.9986 -18.3564 271° West  Level FlightAware Approximate
Wed 08:21:00 AM 57.0000 -18.5754 271° West  Level FlightAware Approximate
Wed 08:22:00 AM 57.0011 -18.7944 271° West  Level FlightAware Approximate
Wed 08:23:00 AM 57.0017 -19.0133 270° West  Level FlightAware Approximate
Wed 08:24:00 AM 57.0020 -19.2323 270° West  Level FlightAware Approximate
Wed 08:25:00 AM 57.0019 -19.4513 270° West  Level FlightAware Approximate
Wed 08:26:00 AM 57.0014 -19.6703 270° West  Level FlightAware Approximate
Wed 08:27:00 AM 57.0006 -19.8893 270° West  Level FlightAware Approximate
Wed 08:27:44 AM 57.0000 -20.0000 285° West 446 513 36,000  Level ETMS Enhanced Traffic Management System
Wed 08:28:00 AM 57.0148 -20.1052 285° West  Level FlightAware Approximate
Wed 08:29:00 AM 57.0444 -20.3175 284° West  Level FlightAware Approximate
Wed 08:30:00 AM 57.0736 -20.5301 284° West  Level FlightAware Approximate
Wed 08:31:00 AM 57.1024 -20.7431 284° West  Level FlightAware Approximate
Wed 08:32:00 AM 57.1309 -20.9564 284° West  Level FlightAware Approximate
Wed 08:33:00 AM 57.2114 -21.5513 283° West 446 513 36,000  Level FlightAware Transoceanic
Wed 08:34:00 AM 57.2401 -21.7744 283° West 446 513 36,000  Level FlightAware Transoceanic
Wed 08:35:00 AM 57.2683 -21.9978 283° West 446 513 36,000  Level FlightAware Transoceanic
Wed 08:36:00 AM 57.2961 -22.2215 283° West 446 513 36,000  Level FlightAware Transoceanic
Wed 08:37:00 AM 57.3236 -22.4456 283° West 446 513 36,000  Level FlightAware Transoceanic
Wed 08:38:00 AM 57.3506 -22.6700 282° West 446 513 36,000  Level FlightAware Transoceanic
Wed 08:39:00 AM 57.3773 -22.8947 282° West 446 513 36,000  Level FlightAware Transoceanic
Wed 08:40:00 AM 57.4035 -23.1198 282° West 446 513 36,000  Level FlightAware Transoceanic
Wed 08:41:00 AM 57.4293 -23.3451 282° West 446 513 36,000  Level FlightAware Transoceanic
Wed 08:42:00 AM 57.4548 -23.5708 282° West 446 513 36,000  Level FlightAware Transoceanic
Wed 08:43:00 AM 57.4798 -23.7968 282° West 446 513 36,000  Level FlightAware Transoceanic
Wed 08:44:00 AM 57.5044 -24.0231 281° West 446 513 36,000  Level FlightAware Transoceanic
Wed 08:45:00 AM 57.5287 -24.2497 281° West 446 513 36,000  Level FlightAware Transoceanic
Wed 08:46:00 AM 57.5525 -24.4766 281° West 446 513 36,000  Level FlightAware Transoceanic
Wed 08:47:00 AM 57.5759 -24.7038 281° West 446 513 36,000  Level FlightAware Transoceanic
Wed 08:48:00 AM 57.5989 -24.9313 281° West 446 513 36,000  Level FlightAware Transoceanic
Wed 08:49:00 AM 57.6215 -25.1591 280° West 446 513 36,000  Level FlightAware Transoceanic
Wed 08:50:00 AM 57.6437 -25.3872 280° West 446 513 36,000  Level FlightAware Transoceanic
Wed 08:51:00 AM 57.6654 -25.6155 280° West 446 513 36,000  Level FlightAware Transoceanic
Wed 08:52:00 AM 57.6868 -25.8441 280° West 446 513 36,000  Level FlightAware Transoceanic
Wed 08:53:00 AM 57.7077 -26.0730 280° West 446 513 36,000  Level FlightAware Transoceanic
Wed 08:54:00 AM 57.7283 -26.3021 279° West 446 513 36,000  Level FlightAware Transoceanic
Wed 08:55:00 AM 57.7484 -26.5315 279° West 446 513 36,000  Level FlightAware Transoceanic
Wed 08:56:00 AM 57.7681 -26.7612 279° West 446 513 36,000  Level FlightAware Transoceanic
Wed 08:57:00 AM 57.7874 -26.9911 279° West 446 513 36,000  Level FlightAware Transoceanic
Wed 08:58:00 AM 57.8063 -27.2212 279° West 446 513 36,000  Level FlightAware Transoceanic
Wed 08:59:00 AM 57.8247 -27.4516 278° West 446 513 36,000  Level FlightAware Transoceanic
Wed 09:00:00 AM 57.8428 -27.6822 278° West 446 513 36,000  Level FlightAware Transoceanic
Wed 09:01:00 AM 57.8604 -27.9130 278° West 446 513 36,000  Level FlightAware Transoceanic
Wed 09:02:00 AM 57.8776 -28.1441 278° West 446 513 36,000  Level FlightAware Transoceanic
Wed 09:03:00 AM 57.8944 -28.3754 278° West 446 513 36,000  Level FlightAware Transoceanic
Wed 09:04:00 AM 57.9107 -28.6068 277° West 446 513 36,000  Level FlightAware Transoceanic
Wed 09:05:00 AM 57.9267 -28.8386 277° West 446 513 36,000  Level FlightAware Transoceanic
Wed 09:06:00 AM 57.9422 -29.0705 277° West 446 513 36,000  Level FlightAware Transoceanic
Wed 09:07:00 AM 57.9573 -29.3026 277° West 446 513 36,000  Level FlightAware Transoceanic
Wed 09:08:00 AM 57.9719 -29.5348 277° West 446 513 36,000  Level FlightAware Transoceanic
Wed 09:09:00 AM 57.9862 -29.7673 276° West 446 513 36,000  Level FlightAware Transoceanic
Wed 09:10:00 AM 57.9995 -29.9909 276° West  Level FlightAware Approximate
Wed 09:11:00 AM 58.0124 -30.2147 276° West  Level FlightAware Approximate
Wed 09:12:00 AM 58.0079 -30.2063 274° West  Level FlightAware Approximate
Wed 09:13:00 AM 58.0162 -30.4309 274° West  Level FlightAware Approximate
Wed 09:14:00 AM 58.0241 -30.6556 274° West  Level FlightAware Approximate
Wed 09:15:00 AM 58.0315 -30.8804 274° West  Level FlightAware Approximate
Wed 09:15:31 AM 58.0000 -30.0000 274° West 423 487 36,000  Level ETMS Enhanced Traffic Management System
Wed 09:16:00 AM 58.0386 -31.1053 273° West  Level FlightAware Approximate
Wed 09:17:00 AM 58.0453 -31.3302 273° West  Level FlightAware Approximate
Wed 09:18:00 AM 58.0516 -31.5553 273° West  Level FlightAware Approximate
Wed 09:19:00 AM 58.0575 -31.7804 273° West  Level FlightAware Approximate
Wed 09:20:00 AM 58.0630 -32.0056 273° West  Level FlightAware Approximate
Wed 09:21:00 AM 58.0515 -31.5522 273° West 423 487 36,000  Level FlightAware Transoceanic
Wed 09:22:00 AM 58.0573 -31.7743 273° West 423 487 36,000  Level FlightAware Transoceanic
Wed 09:23:00 AM 58.0627 -31.9965 273° West 423 487 36,000  Level FlightAware Transoceanic
Wed 09:24:00 AM 58.0678 -32.2187 272° West 423 487 36,000  Level FlightAware Transoceanic
Wed 09:25:00 AM 58.0724 -32.4410 272° West 423 487 36,000  Level FlightAware Transoceanic
Wed 09:26:00 AM 58.0767 -32.6633 272° West 423 487 36,000  Level FlightAware Transoceanic
Wed 09:27:00 AM 58.0806 -32.8857 272° West 423 487 36,000  Level FlightAware Transoceanic
Wed 09:28:00 AM 58.0841 -33.1081 272° West 423 487 36,000  Level FlightAware Transoceanic
Wed 09:29:00 AM 58.0872 -33.3306 271° West 423 487 36,000  Level FlightAware Transoceanic
Wed 09:30:00 AM 58.0899 -33.5531 271° West 423 487 36,000  Level FlightAware Transoceanic
Wed 09:31:00 AM 58.0922 -33.7757 271° West 423 487 36,000  Level FlightAware Transoceanic
Wed 09:32:00 AM 58.0942 -33.9982 271° West 423 487 36,000  Level FlightAware Transoceanic
Wed 09:33:00 AM 58.0957 -34.2208 271° West 423 487 36,000  Level FlightAware Transoceanic
Wed 09:34:00 AM 58.0969 -34.4434 270° West 423 487 36,000  Level FlightAware Transoceanic
Wed 09:35:00 AM 58.0976 -34.6661 270° West 423 487 36,000  Level FlightAware Transoceanic
Wed 09:36:00 AM 58.0980 -34.8887 270° West 423 487 36,000  Level FlightAware Transoceanic
Wed 09:37:00 AM 58.0980 -35.1113 270° West 423 487 36,000  Level FlightAware Transoceanic
Wed 09:38:00 AM 58.0976 -35.3339 270° West 423 487 36,000  Level FlightAware Transoceanic
Wed 09:39:00 AM 58.0969 -35.5566 270° West 423 487 36,000  Level FlightAware Transoceanic
Wed 09:40:00 AM 58.0957 -35.7792 269° West 423 487 36,000  Level FlightAware Transoceanic
Wed 09:41:00 AM 58.0942 -36.0018 269° West 423 487 36,000  Level FlightAware Transoceanic
Wed 09:42:00 AM 58.0922 -36.2243 269° West 423 487 36,000  Level FlightAware Transoceanic
Wed 09:43:00 AM 58.0899 -36.4469 269° West 423 487 36,000  Level FlightAware Transoceanic
Wed 09:44:00 AM 58.0872 -36.6694 269° West 423 487 36,000  Level FlightAware Transoceanic
Wed 09:45:00 AM 58.0841 -36.8919 268° West 423 487 36,000  Level FlightAware Transoceanic
Wed 09:46:00 AM 58.0806 -37.1143 268° West 423 487 36,000  Level FlightAware Transoceanic
Wed 09:47:00 AM 58.0767 -37.3367 268° West 423 487 36,000  Level FlightAware Transoceanic
Wed 09:48:00 AM 58.0724 -37.5590 268° West 423 487 36,000  Level FlightAware Transoceanic
Wed 09:49:00 AM 58.0678 -37.7813 268° West 423 487 36,000  Level FlightAware Transoceanic
Wed 09:50:00 AM 58.0627 -38.0035 267° West 423 487 36,000  Level FlightAware Transoceanic
Wed 09:51:00 AM 58.0573 -38.2257 267° West 423 487 36,000  Level FlightAware Transoceanic
Wed 09:52:00 AM 58.0515 -38.4478 267° West 423 487 36,000  Level FlightAware Transoceanic
Wed 09:53:00 AM 58.0453 -38.6698 267° West 423 487 36,000  Level FlightAware Transoceanic
Wed 09:54:00 AM 58.0387 -38.8917 267° West 423 487 36,000  Level FlightAware Transoceanic
Wed 09:55:00 AM 58.0317 -39.1135 267° West 423 487 36,000  Level FlightAware Transoceanic
Wed 09:56:00 AM 58.0244 -39.3353 266° West 423 487 36,000  Level FlightAware Transoceanic
Wed 09:57:00 AM 58.0166 -39.5570 266° West 423 487 36,000  Level FlightAware Transoceanic
Wed 09:58:00 AM 58.0085 -39.7785 266° West 423 487 36,000 1,000 Level FlightAware Transoceanic
Wed 09:58:00 AM 58.0000 -40.0000 254° West 463 533 37,000 167 Climbing ETMS Enhanced Traffic Management System
Wed 09:59:00 AM 58.0000 -40.0002 266° West  Level FlightAware Approximate
Wed 10:00:00 AM 57.9526 -40.2035 254° West  Level Estimated
Wed 10:01:00 AM 57.9201 -40.4167 254° West  Level FlightAware Approximate
Wed 10:02:00 AM 57.8872 -40.6296 254° West  Level FlightAware Approximate
Wed 10:03:00 AM 57.8540 -40.8420 254° West  Level FlightAware Approximate
Wed 10:04:00 AM 57.7423 -41.6244 253° West 463 533 37,000  Level FlightAware Transoceanic
Wed 10:05:00 AM 57.7038 -41.8546 253° West 463 533 37,000  Level FlightAware Transoceanic
Wed 10:06:00 AM 57.6649 -42.0842 252° West 463 533 37,000  Level FlightAware Transoceanic
Wed 10:07:00 AM 57.6256 -42.3134 252° West 463 533 37,000  Level FlightAware Transoceanic
Wed 10:08:00 AM 57.5859 -42.5420 252° West 463 533 37,000  Level FlightAware Transoceanic
Wed 10:09:00 AM 57.5457 -42.7702 252° West 463 533 37,000  Level FlightAware Transoceanic
Wed 10:10:00 AM 57.5051 -42.9978 252° West 463 533 37,000  Level FlightAware Transoceanic
Wed 10:11:00 AM 57.4642 -43.2250 251° West 463 533 37,000  Level FlightAware Transoceanic
Wed 10:12:00 AM 57.4228 -43.4516 251° West 463 533 37,000  Level FlightAware Transoceanic
Wed 10:13:00 AM 57.3810 -43.6777 251° West 463 533 37,000  Level FlightAware Transoceanic
Wed 10:14:00 AM 57.3388 -43.9033 251° West 463 533 37,000  Level FlightAware Transoceanic
Wed 10:15:00 AM 57.2962 -44.1284 251° West 463 533 37,000  Level FlightAware Transoceanic
Wed 10:16:00 AM 57.2532 -44.3530 250° West 463 533 37,000  Level FlightAware Transoceanic
Wed 10:17:00 AM 57.2099 -44.5770 250° West 463 533 37,000  Level FlightAware Transoceanic
Wed 10:18:00 AM 57.1661 -44.8005 250° West 463 533 37,000  Level FlightAware Transoceanic
Wed 10:19:00 AM 57.1219 -45.0234 250° West 463 533 37,000  Level FlightAware Transoceanic
Wed 10:20:00 AM 57.0773 -45.2459 250° West 463 533 37,000  Level FlightAware Transoceanic
Wed 10:21:00 AM 57.0323 -45.4678 249° West 463 533 37,000  Level FlightAware Transoceanic
Wed 10:22:00 AM 56.9869 -45.6892 249° West 463 533 37,000  Level FlightAware Transoceanic
Wed 10:23:00 AM 56.9412 -45.9100 249° West 463 533 37,000  Level FlightAware Transoceanic
Wed 10:24:00 AM 56.8951 -46.1302 249° West 463 533 37,000  Level FlightAware Transoceanic
Wed 10:25:00 AM 56.8485 -46.3500 249° West 463 533 37,000  Level FlightAware Transoceanic
Wed 10:26:00 AM 56.8016 -46.5691 249° West 463 533 37,000  Level FlightAware Transoceanic
Wed 10:27:00 AM 56.7543 -46.7878 248° West 463 533 37,000  Level FlightAware Transoceanic
Wed 10:28:00 AM 56.7066 -47.0059 248° West 463 533 37,000  Level FlightAware Transoceanic
Wed 10:29:00 AM 56.6586 -47.2234 248° West 463 533 37,000  Level FlightAware Transoceanic
Wed 10:30:00 AM 56.6101 -47.4404 248° West 463 533 37,000  Level FlightAware Transoceanic
Wed 10:31:00 AM 56.5613 -47.6568 248° West 463 533 37,000  Level FlightAware Transoceanic
Wed 10:32:00 AM 56.5121 -47.8726 247° West 463 533 37,000  Level FlightAware Transoceanic
Wed 10:33:00 AM 56.4626 -48.0879 247° West 463 533 37,000  Level FlightAware Transoceanic
Wed 10:34:00 AM 56.4126 -48.3027 247° West 463 533 37,000  Level FlightAware Transoceanic
Wed 10:35:00 AM 56.3623 -48.5168 247° West 463 533 37,000  Level FlightAware Transoceanic
Wed 10:36:00 AM 56.3117 -48.7304 247° West 463 533 37,000  Level FlightAware Transoceanic
Wed 10:37:00 AM 56.2606 -48.9434 247° West 463 533 37,000  Level FlightAware Transoceanic
Wed 10:38:00 AM 56.2092 -49.1559 246° West 463 533 37,000  Level FlightAware Transoceanic
Wed 10:39:00 AM 56.1575 -49.3678 246° West 463 533 37,000  Level FlightAware Transoceanic
Wed 10:40:00 AM 56.1053 -49.5791 246° West 463 533 37,000  Level FlightAware Transoceanic
Wed 10:41:00 AM 56.0528 -49.7898 246° West 463 533 37,000 143 Level FlightAware Transoceanic
Wed 10:42:00 AM 56.0045 -49.9820 246° West  Level FlightAware Approximate
Wed 10:43:00 AM 55.9559 -50.1737 246° West  Level FlightAware Approximate
Wed 10:44:00 AM 55.9670 -50.1607 250° West  Level FlightAware Approximate
Wed 10:45:00 AM 55.9262 -50.3579 250° West  Level FlightAware Approximate
Wed 10:46:00 AM 55.8851 -50.5548 250° West  Level FlightAware Approximate
Wed 10:47:00 AM 55.8436 -50.7512 249° West  Level FlightAware Approximate
Wed 10:47:00 AM 56.0000 -50.0000 250° West 464 534 38,000  Level ETMS Enhanced Traffic Management System
Wed 10:48:00 AM 55.8018 -50.9472 249° West  Level FlightAware Approximate
Wed 10:49:00 AM 55.7598 -51.1428 249° West  Level FlightAware Approximate
Wed 10:50:00 AM 55.7174 -51.3380 249° West  Level FlightAware Approximate
Wed 10:51:00 AM 55.6746 -51.5327 249° West  Level FlightAware Approximate
Wed 10:52:00 AM 55.6316 -51.7270 249° West  Level FlightAware Approximate
Wed 10:53:00 AM 55.4417 -52.5643 248° West 464 534 38,000  Level FlightAware Transoceanic
Wed 10:54:00 AM 55.3927 -52.7747 248° West 464 534 38,000  Level FlightAware Transoceanic
Wed 10:55:00 AM 55.3435 -52.9845 247° West 464 534 38,000  Level FlightAware Transoceanic
Wed 10:56:00 AM 55.2938 -53.1939 247° West 464 534 38,000  Level FlightAware Transoceanic
Wed 10:57:00 AM 55.2438 -53.4026 247° West 464 534 38,000  Level FlightAware Transoceanic
Wed 10:58:00 AM 55.1935 -53.6109 247° West 464 534 38,000  Level FlightAware Transoceanic
Wed 10:59:00 AM 55.1428 -53.8186 247° West 464 534 38,000  Level FlightAware Transoceanic
Wed 11:00:00 AM 55.0917 -54.0258 247° West 464 534 38,000  Level FlightAware Transoceanic
Wed 11:01:00 AM 55.0403 -54.2325 246° West 464 534 38,000  Level FlightAware Transoceanic
Wed 11:02:00 AM 54.9886 -54.4386 246° West 464 534 38,000  Level FlightAware Transoceanic
Wed 11:03:00 AM 54.9365 -54.6443 246° West 464 534 38,000  Level FlightAware Transoceanic
Wed 11:04:00 AM 54.8840 -54.8493 246° West 464 534 38,000  Level FlightAware Transoceanic
Wed 11:05:00 AM 54.8312 -55.0539 246° West 464 534 38,000  Level FlightAware Transoceanic
Wed 11:05:36 AM 54.8333 -55.0167 229° Southwest 460 529 38,000  Level Gander Center
Wed 11:06:00 AM 54.7781 -55.2579 246° West 464 534 38,000  Level FlightAware Transoceanic
Wed 11:06:36 AM 54.7667 -55.2167 240° Southwest 460 529 38,000  Level Gander Center
Wed 11:07:00 AM 54.7246 -55.4613 245° Southwest 464 534 38,000  Level FlightAware Transoceanic
Wed 11:07:36 AM 54.7333 -55.4000 253° West 460 529 38,000  Level Gander Center
Wed 11:08:00 AM 54.6708 -55.6643 245° Southwest 464 534 38,000  Level FlightAware Transoceanic
Wed 11:08:36 AM 54.6667 -55.6167 242° Southwest 450 518 38,000  Level Gander Center
Wed 11:09:00 AM 54.5944 -55.8155 229° Southwest  Level Estimated
Wed 11:09:36 AM 54.6167 -55.8000 245° Southwest 450 518 38,000  Level Gander Center
Wed 11:10:00 AM 54.5179 -55.9661 229° Southwest  Level Estimated
Wed 11:10:36 AM 54.5500 -55.9833 238° Southwest 460 529 38,000  Level Gander Center
Wed 11:11:36 AM 54.4667 -56.1667 232° Southwest 470 541 38,000  Level Gander Center
Wed 11:12:36 AM 54.3833 -56.3167 226° Southwest 470 541 38,000  Level Gander Center
Wed 11:13:36 AM 54.2833 -56.5000 227° Southwest 470 541 38,000  Level Gander Center
Wed 11:14:36 AM 54.2167 -56.6500 233° Southwest 460 529 38,000  Level Gander Center
Wed 11:15:36 AM 54.1167 -56.8333 227° Southwest 460 529 38,000  Level Gander Center
Wed 11:16:36 AM 54.0333 -56.9833 227° Southwest 460 529 38,000  Level Gander Center
Wed 11:18:36 AM 53.8667 -57.3167 230° Southwest 460 529 38,000  Level Gander Center
Wed 11:19:36 AM 53.7833 -57.4667 227° Southwest 450 518 38,000  Level Gander Center
Wed 11:20:36 AM 53.7000 -57.6333 230° Southwest 460 529 38,000  Level Gander Center
Wed 11:21:36 AM 53.6167 -57.7833 227° Southwest 460 529 38,000  Level Gander Center
Wed 11:22:29 AM 53.5333 -57.9167 224° Southwest 460 529 38,000  Level Moncton Center
Wed 11:23:29 AM 53.4500 -58.1000 233° Southwest 460 529 38,000  Level Moncton Center
Wed 11:24:29 AM 53.3667 -58.2500 227° Southwest 460 529 38,000  Level Moncton Center
Wed 11:25:29 AM 53.2833 -58.4167 230° Southwest 460 529 38,000  Level Moncton Center
Wed 11:26:29 AM 53.2000 -58.5667 227° Southwest 460 529 38,000  Level Moncton Center
Wed 11:27:29 AM 53.1000 -58.7167 222° Southwest 450 518 38,000  Level Moncton Center
Wed 11:28:36 AM 53.0167 -58.8833 230° Southwest 450 518 38,000  Level Gander Center
Wed 11:29:36 AM 52.9167 -59.0333 222° Southwest 450 518 38,000  Level Gander Center
Wed 11:30:36 AM 52.8500 -59.1833 234° Southwest 450 518 38,000  Level Gander Center
Wed 11:31:36 AM 52.7500 -59.3500 225° Southwest 450 518 38,000  Level Gander Center
Wed 11:32:36 AM 52.6667 -59.4833 224° Southwest 450 518 38,000  Level Gander Center
Wed 11:33:36 AM 52.5833 -59.6667 233° Southwest 450 518 38,000  Level Gander Center
Wed 11:34:36 AM 52.5000 -59.8000 224° Southwest 450 518 38,000  Level Gander Center
Wed 11:35:36 AM 52.4167 -59.9333 224° Southwest 450 518 38,000  Level Gander Center
Wed 11:36:36 AM 52.3167 -60.0833 223° Southwest 450 518 38,000  Level Gander Center
Wed 11:37:36 AM 52.2333 -60.2167 224° Southwest 450 518 38,000  Level Gander Center
Wed 11:38:36 AM 52.1500 -60.3833 231° Southwest 440 506 38,000  Level Gander Center
Wed 11:39:36 AM 52.0667 -60.5167 225° Southwest 440 506 38,000  Level Gander Center
Wed 11:40:36 AM 51.9667 -60.6500 219° Southwest 440 506 38,000  Level Gander Center
Wed 11:41:36 AM 51.8833 -60.8000 228° Southwest 440 506 38,000  Level Gander Center
Wed 11:42:36 AM 51.8000 -60.9333 225° Southwest 440 506 38,000  Level Gander Center
Wed 11:43:36 AM 51.7167 -61.1000 231° Southwest 450 518 38,000  Level Gander Center
Wed 11:44:36 AM 51.6167 -61.2333 220° Southwest 440 506 38,000  Level Gander Center
Wed 11:45:36 AM 51.5333 -61.3667 225° Southwest 450 518 38,000  Level Gander Center
Wed 11:46:36 AM 51.4500 -61.5167 228° Southwest 450 518 38,000  Level Gander Center
Wed 11:47:36 AM 51.3500 -61.6500 220° Southwest 450 518 38,000  Level Gander Center
Wed 11:48:36 AM 51.2667 -61.7833 225° Southwest 450 518 38,000  Level Gander Center
Wed 11:49:36 AM 51.1833 -61.9167 225° Southwest 450 518 38,000  Level Gander Center
Wed 11:50:36 AM 51.1000 -62.0833 232° Southwest 450 518 38,000  Level Gander Center
Wed 11:51:36 AM 51.0167 -62.2167 225° Southwest 450 518 38,000  Level Gander Center
Wed 11:52:36 AM 50.9167 -62.3500 220° Southwest 440 506 38,000  Level Gander Center
Wed 11:53:36 AM 50.8333 -62.5000 229° Southwest 440 506 38,000  Level Gander Center
Wed 11:54:36 AM 50.7500 -62.6333 225° Southwest 450 518 38,000  Level Gander Center
Wed 11:55:36 AM 50.6500 -62.7667 220° Southwest 450 518 38,000  Level Gander Center
Wed 11:56:36 AM 50.5667 -62.8833 222° Southwest 450 518 38,000  Level Gander Center
Wed 11:58:36 AM 50.3833 -63.1667 225° Southwest 440 506 38,000  Level Gander Center
Wed 11:59:36 AM 50.3000 -63.3000 226° Southwest 440 506 38,000  Level Gander Center
Wed 12:00:36 PM 50.2000 -63.4167 217° Southwest 440 506 38,000  Level Gander Center
Wed 12:01:36 PM 50.1167 -63.5500 226° Southwest 440 506 38,000  Level Gander Center
Wed 12:02:36 PM 50.0333 -63.7000 229° Southwest 440 506 38,000  Level Gander Center
Wed 12:03:36 PM 49.9333 -63.8333 221° Southwest 440 506 38,000  Level Gander Center
Wed 12:04:36 PM 49.8333 -63.9500 217° Southwest 440 506 38,000  Level Gander Center
Wed 12:05:36 PM 49.7500 -64.0833 226° Southwest 440 506 38,000  Level Gander Center
Wed 12:06:36 PM 49.6667 -64.2000 222° Southwest 440 506 38,000  Level Gander Center
Wed 12:07:36 PM 49.5833 -64.3500 229° Southwest 440 506 38,000  Level Gander Center
Wed 12:08:36 PM 49.4833 -64.4667 217° Southwest 440 506 38,000  Level Gander Center
Wed 12:09:36 PM 49.4000 -64.6000 226° Southwest 440 506 38,000  Level Gander Center
Wed 12:10:36 PM 49.3167 -64.7167 222° Southwest 440 506 38,000  Level Gander Center
Wed 12:11:36 PM 49.2167 -64.8333 217° Southwest 440 506 38,000  Level Gander Center
Wed 12:12:36 PM 49.1167 -64.9667 221° Southwest 440 506 38,000  Level Gander Center
Wed 12:13:36 PM 49.0333 -65.0833 223° Southwest 440 506 38,000  Level Gander Center
Wed 12:14:36 PM 48.9500 -65.2333 230° Southwest 440 506 38,000  Level Gander Center
Wed 12:15:36 PM 48.8667 -65.3500 223° Southwest 440 506 38,000  Level Gander Center
Wed 12:16:36 PM 48.7500 -65.4667 213° Southwest 440 506 38,000  Level Gander Center
Wed 12:17:36 PM 48.6667 -65.5833 223° Southwest 450 518 38,000  Level Gander Center
Wed 12:18:36 PM 48.5833 -65.7333 230° Southwest 440 506 38,000  Level Gander Center
Wed 12:19:36 PM 48.4833 -65.8500 218° Southwest 440 506 38,000  Level Gander Center
Wed 12:20:36 PM 48.4000 -65.9667 223° Southwest 440 506 38,000  Level Gander Center
Wed 12:21:36 PM 48.3000 -66.0833 218° Southwest 440 506 38,000  Level Gander Center
Wed 12:22:36 PM 48.2000 -66.2000 218° Southwest 440 506 38,000  Level Gander Center
Wed 12:23:36 PM 48.1167 -66.3333 227° Southwest 440 506 38,000  Level Gander Center
Wed 12:24:36 PM 48.0333 -66.4500 223° Southwest 440 506 38,000  Level Gander Center
Wed 12:25:36 PM 47.9333 -66.5667 218° Southwest 440 506 38,000  Level Gander Center
Wed 12:26:36 PM 47.8500 -66.7167 230° Southwest 430 495 38,000  Level Gander Center
Wed 12:27:36 PM 47.7667 -66.8500 227° Southwest 430 495 38,000  Level Gander Center
Wed 12:28:29 PM 47.7000 -66.9667 230° Southwest 430 495 38,000  Level Moncton Center
Wed 12:28:36 PM 47.7000 -66.9667 230° Southwest 440 506 38,000  Level Gander Center
Wed 12:29:29 PM 47.6167 -67.0833 223° Southwest 430 495 38,000  Level Moncton Center
Wed 12:30:29 PM 47.5333 -67.2167 227° Southwest 440 506 38,000  Level Moncton Center
Wed 12:31:29 PM 47.4667 -67.3667 237° Southwest 440 506 38,000  Level Moncton Center
Wed 12:32:29 PM 47.3667 -67.5167 225° Southwest 440 506 38,000  Level Moncton Center
Wed 12:33:04 PM 47.3522 -67.5544 241° Southwest 438 504 38,000  Level Boston Center
Wed 12:34:04 PM 47.2700 -67.6872 228° Southwest 433 498 38,000  Level Boston Center
Wed 12:35:04 PM 47.1900 -67.8225 229° Southwest 433 498 38,000  Level Boston Center
Wed 12:36:04 PM 47.1075 -67.9514 227° Southwest 433 498 38,000  Level Boston Center
Wed 12:37:04 PM 47.0275 -68.0917 230° Southwest 440 506 38,000  Level Boston Center
Wed 12:38:04 PM 46.9489 -68.2228 229° Southwest 440 506 38,000  Level Boston Center
Wed 12:39:04 PM 46.8639 -68.3506 226° Southwest 440 506 38,000  Level Boston Center
Wed 12:40:04 PM 46.7811 -68.4808 227° Southwest 440 506 38,000  Level Boston Center
Wed 12:41:04 PM 46.6978 -68.6108 227° Southwest 440 506 38,000  Level Boston Center
Wed 12:42:04 PM 46.6144 -68.7406 227° Southwest 440 506 38,000  Level Boston Center
Wed 12:43:04 PM 46.5331 -68.8694 227° Southwest 435 501 38,000  Level Boston Center
Wed 12:48:38 PM 46.0770 -69.5750 227° Southwest 444 511 38,000  Level FlightAware ADS-B
Wed 12:49:28 PM 46.0080 -69.6790 226° Southwest 445 512 38,000  Level FlightAware ADS-B
Wed 12:50:09 PM 45.9520 -69.7620 226° Southwest 446 513 38,000  Level FlightAware ADS-B
Wed 12:50:53 PM 45.8930 -69.8500 226° Southwest 447 514 38,000  Level FlightAware ADS-B
Wed 12:51:28 PM 45.8340 -69.9380 226° Southwest 38,000  Level FlightAware ADS-B
Wed 12:52:03 PM 45.7860 -70.0090 226° Southwest 444 511 38,000  Level FlightAware ADS-B
Wed 12:53:03 PM 45.6960 -70.1430 226° Southwest 443 510 38,000  Level FlightAware ADS-B
Wed 12:53:53 PM 45.6280 -70.2430 226° Southwest 445 512 38,000  Level FlightAware ADS-B
Wed 12:54:43 PM 45.5500 -70.3570 226° Southwest 443 510 38,000  Level FlightAware ADS-B
Wed 12:55:27 PM 45.5000 -70.4310 226° Southwest 443 510 38,000  Level FlightAware ADS-B
Wed 12:56:03 PM 45.4350 -70.5260 226° Southwest 442 509 38,000  Level FlightAware ADS-B
Wed 12:56:40 PM 45.3900 -70.5910 225° Southwest 442 509 38,000  Level FlightAware ADS-B
Wed 12:57:29 PM 45.3110 -70.7050 225° Southwest 441 507 38,000  Level FlightAware ADS-B
Wed 12:58:09 PM 45.2550 -70.7850 225° Southwest 441 507 38,000  Level FlightAware ADS-B
Wed 12:58:49 PM 45.1970 -70.8700 226° Southwest 440 506 38,000  Level FlightAware ADS-B
Wed 12:59:34 PM 45.1300 -70.9650 225° Southwest 444 511 38,000  Level FlightAware ADS-B
Wed 01:00:16 PM 45.0670 -71.0550 225° Southwest 444 511 38,000  Level FlightAware ADS-B
Wed 01:00:57 PM 45.0090 -71.1390 226° Southwest 442 509 38,000  Level FlightAware ADS-B
Wed 01:01:37 PM 44.9510 -71.2200 225° Southwest 439 505 38,000  Level FlightAware ADS-B
Wed 01:02:25 PM 44.8850 -71.3150 226° Southwest 441 507 38,000  Level FlightAware ADS-B
Wed 01:03:02 PM 44.8260 -71.3970 225° Southwest 440 506 38,000  Level FlightAware ADS-B
Wed 01:03:47 PM 44.7610 -71.4900 225° Southwest 439 505 38,000  Level FlightAware ADS-B
Wed 01:04:27 PM 44.7020 -71.5720 225° Southwest 439 505 38,000  Level FlightAware ADS-B
Wed 01:05:12 PM 44.6370 -71.6630 225° Southwest 437 503 38,000  Level FlightAware ADS-B
Wed 01:05:54 PM 44.5790 -71.7440 225° Southwest 436 502 38,000  Level FlightAware ADS-B
Wed 01:06:32 PM 44.5210 -71.8250 225° Southwest 438 504 38,000  Level FlightAware ADS-B
Wed 01:07:14 PM 44.4590 -71.9110 225° Southwest 444 511 38,000  Level FlightAware ADS-B
Wed 01:07:55 PM 44.4020 -71.9890 224° Southwest 444 511 38,000  Level FlightAware ADS-B
Wed 01:08:36 PM 44.3400 -72.0750 225° Southwest 445 512 38,000  Level FlightAware ADS-B
Wed 01:09:16 PM 44.2810 -72.1570 225° Southwest 444 511 38,000  Level FlightAware ADS-B
Wed 01:10:01 PM 44.2170 -72.2430 224° Southwest 444 511 38,000  Level FlightAware ADS-B
Wed 01:10:40 PM 44.1590 -72.3230 225° Southwest 445 512 38,000  Level FlightAware ADS-B
Wed 01:11:21 PM 44.1180 -72.3790 224° Southwest 445 512 38,000  Level FlightAware ADS-B
Wed 01:12:18 PM 44.0270 -72.5030 224° Southwest 444 511 38,000  Level FlightAware ADS-B
Wed 01:13:01 PM 43.9510 -72.6060 224° Southwest 446 513 38,000  Level FlightAware ADS-B
Wed 01:13:43 PM 43.8880 -72.6900 224° Southwest 446 513 38,000  Level FlightAware ADS-B
Wed 01:14:21 PM 43.8340 -72.7630 224° Southwest 446 513 38,000  Level FlightAware ADS-B
Wed 01:15:07 PM 43.7640 -72.8570 224° Southwest 447 514 38,000  Level FlightAware ADS-B
Wed 01:15:48 PM 43.7040 -72.9370 224° Southwest 448 516 38,000 -71 Level FlightAware ADS-B
Wed 01:16:32 PM 43.6380 -73.0250 224° Southwest 448 516 37,900 -988 Descending FlightAware ADS-B
Wed 01:17:13 PM 43.5800 -73.1030 224° Southwest 448 516 36,600 -2,413 Descending FlightAware ADS-B
Wed 01:18:04 PM 43.5020 -73.2070 224° Southwest 449 517 34,200 -2,845 Descending FlightAware ADS-B
Wed 01:18:50 PM 43.4320 -73.2990 224° Southwest 464 534 32,000 -3,149 Descending FlightAware ADS-B
Wed 01:19:45 PM 43.3470 -73.4110 224° Southwest 473 544 28,900 -3,447 Descending FlightAware ADS-B
Wed 01:20:24 PM 43.2880 -73.4890 224° Southwest 473 544 26,600 -2,940 Descending FlightAware ADS-B
Wed 01:21:25 PM 43.1810 -73.6040 218° Southwest 455 524 24,000 -1,576 Descending FlightAware ADS-B
Wed 01:22:03 PM 43.1210 -73.6460 207° Southwest 455 524 24,000  Level FlightAware ADS-B
Wed 01:22:51 PM 43.0440 -73.7000 207° Southwest 455 524 24,000  Level FlightAware ADS-B
Wed 01:23:27 PM 42.9870 -73.7400 207° Southwest 455 524 24,000  Level FlightAware ADS-B
Wed 01:24:03 PM 42.9300 -73.7800 207° Southwest 455 524 24,000  Level FlightAware ADS-B
Wed 01:24:38 PM 42.8740 -73.8180 206° Southwest 455 524 24,000 -3,967 Level FlightAware ADS-B
Wed 01:26:04 PM 42.6522 -73.8517 206° Southwest 408 470 16,000 -3,288 Descending Boston Center
Wed 01:27:04 PM 42.5600 -73.8861 195° South 379 436 16,000  Level Boston Center
Wed 01:28:04 PM 42.4719 -73.9264 199° South 341 392 16,000  Level Boston Center
Wed 01:29:04 PM 42.3819 -73.9664 198° South 341 392 16,000  Level Boston Center
Wed 01:30:04 PM 42.2917 -74.0061 198° South 346 398 16,000  Level Boston Center
Wed 01:31:04 PM 42.2014 -74.0461 198° South 346 398 16,000  Level Boston Center
Wed 01:32:04 PM 42.1197 -74.0831 199° South 346 398 16,000 -434 Level Boston Center
Wed 01:37:31 PM 41.6760 -74.2630 199° South 293 337 13,200 -459 Descending FlightAware ADS-B
Wed 01:38:10 PM 41.6350 -74.2900 206° Southwest 293 337 13,200  Level FlightAware ADS-B
Wed 01:38:58 PM 41.5850 -74.3220 206° Southwest 293 337 13,200 -95 Level FlightAware ADS-B
Wed 01:40:16 PM 41.7650 -74.3661 206° Southwest 204 235 13,000 -47 Descending Boston Center
Wed 01:43:16 PM 41.8236 -74.2231 198° South 169 194 13,000 -225 Level Boston Center
Wed 01:44:16 PM 41.7503 -74.2489 195° South 237 273 12,100 -1,000 Descending Boston Center
Wed 01:45:16 PM 41.6728 -74.2800 197° South 281 323 11,000 -848 Descending Boston Center
Wed 01:45:48 PM 41.6610 -74.2640 206° Southwest 275 316 10,800  Descending FlightAware ADS-B
Wed 01:46:16 PM 41.6381 -74.3539 238° Southwest 262 302 11,000  Climbing Boston Center
Wed 01:46:36 PM 41.6110 -74.2840 197° South 275 316 10,800 -214 Descending FlightAware ADS-B
Wed 01:47:12 PM 41.5740 -74.2980 196° South 275 316 10,800 300 Level FlightAware ADS-B
Wed 01:47:16 PM 41.7022 -74.3781 344° North 169 194 11,000 -49 Climbing Boston Center
Wed 01:49:00 PM 41.3775 -74.3930 198° South  Level FlightAware Approximate
Wed 01:53:23 PM 41.6930 -74.2530 344° North 275 316 10,500  Level FlightAware ADS-B
Wed 01:54:00 PM 41.6550 -74.2690 197° South 275 316 10,500  Level FlightAware ADS-B
Wed 01:54:48 PM 41.6050 -74.2890 197° South 275 316 10,500 -1,103 Level FlightAware ADS-B
Wed 01:56:16 PM 41.4711 -74.3683 197° South 268 308 8,000 -678 Descending Boston Center
Wed 02:02:19 PM 41.0960 -74.3310 197° South 231 266 5,400 -476 Descending FlightAware ADS-B
Wed 02:02:47 PM 41.0780 -74.2990 127° Southeast 231 266 4,900 -563 Descending FlightAware ADS-B
Wed 02:03:23 PM 41.0610 -74.2600 120° Southeast 230 265 4,800 -63 Descending FlightAware ADS-B
Wed 02:04:23 PM 41.0350 -74.1900 116° Southeast 208 239 4,800  Level FlightAware ADS-B
Wed 02:05:09 PM 41.0120 -74.1340 119° Southeast 203 234 4,800 -250 Level FlightAware ADS-B
Wed 02:05:59 PM 40.9920 -74.0840 118° Southeast 181 208 4,400 -711 Descending FlightAware ADS-B
Wed 02:06:25 PM 40.9770 -74.0620 132° Southeast 184 212 3,900 -1,200 Descending FlightAware ADS-B
Wed 02:06:39 PM 40.9663 -74.0532 148° Southeast 185 213 3,600 -1,297 Descending FlightAware ADS-B
Wed 02:07:02 PM 40.9503 -74.0402 148° Southeast 185 213 3,100 -1,091 Descending FlightAware ADS-B
Wed 02:07:23 PM 40.9345 -74.0268 147° Southeast 186 214 2,800 -391 Descending FlightAware ADS-B
Wed 02:07:48 PM 40.9158 -74.0163 157° South 182 209 2,800  Level FlightAware ADS-B
Wed 02:08:01 PM 40.9052 -74.0194 192° South 180 207 2,800  Level FlightAware ADS-B
Wed 02:08:21 PM 40.8892 -74.0269 200° South 183 211 2,800  Level FlightAware ADS-B
Wed 02:08:32 PM 40.8803 -74.0319 203° Southwest 188 216 2,800 -194 Level FlightAware ADS-B
Wed 02:08:52 PM 40.8647 -74.0419 206° Southwest 188 216 2,700 -667 Descending FlightAware ADS-B
Wed 02:09:08 PM 40.8516 -74.0503 206° Southwest 193 222 2,400 -980 Descending FlightAware ADS-B
Wed 02:09:41 PM 40.8262 -74.0670 206° Southwest 176 203 1,900 -842 Descending FlightAware ADS-B
Wed 02:10:05 PM 40.8092 -74.0779 206° Southwest 173 199 1,600 -900 Descending FlightAware ADS-B
Wed 02:10:21 PM 40.7977 -74.0853 206° Southwest 172 198 1,300 -938 Descending FlightAware ADS-B
Wed 02:10:37 PM 40.7871 -74.0922 206° Southwest 169 194 1,100 -882 Descending FlightAware ADS-B
Wed 02:10:55 PM 40.7759 -74.0994 206° Southwest 143 165 800 -1,000 Descending FlightAware ADS-B
Wed 02:13:00 PM 40.6833 -74.1667 180° South  Level FlightAware Approximate

Login

Don't have an account? Register now (free) for customized features, flight alerts, and more!